Time;durP1;ratioP1;P1;durP2;ratioP2;P2;SDS_P1;SDS_P2;PMS_P1;PMS_P2;Temp;Humidity;BMP_temperature;BMP_pressure;BME280_temperature;BME280_humidity;BME280_pressure;Samples;Min_cycle;Max_cycle;Signal;HPM_P1;HPM_P2
2022/04/03 00:00:14;;;;;;;2.25;1.50;;;;;;;18.26;63.73;100370.44;5011246;28;20037;-81
2022/04/03 00:02:39;;;;;;;1.70;1.60;;;;;;;18.26;63.80;100366.03;5011224;28;20037;-81
2022/04/03 00:05:06;;;;;;;2.60;1.65;;;;;;;18.33;63.91;100371.41;5022227;28;20021;-81
2022/04/03 00:07:32;;;;;;;;;;;;;;;18.37;64.19;100363.59;5022083;28;20034;-81
2022/04/03 00:09:58;;;;;;;2.40;1.90;;;;;;;18.31;63.53;100360.84;5011212;28;20374;-81
2022/04/03 00:12:24;;;;;;;;;;;;;;;18.35;64.27;100346.81;5011214;28;20036;-81
2022/04/03 00:14:50;;;;;;;1.73;1.60;;;;;;;18.26;63.97;100342.25;5011312;28;19921;-81
2022/04/03 00:17:16;;;;;;;2.60;1.58;;;;;;;18.28;64.07;100340.50;5010016;28;20041;-81
2022/04/03 00:19:42;;;;;;;1.63;1.52;;;;;;;18.27;64.10;100336.09;5010940;28;20026;-81
2022/04/03 00:22:07;;;;;;;;;;;;;;;18.34;64.50;100339.72;5011417;28;20133;-81
2022/04/03 00:24:33;;;;;;;2.42;1.60;;;;;;;18.23;64.18;100325.47;5011180;28;20386;-81
2022/04/03 00:26:59;;;;;;;1.92;1.60;;;;;;;18.27;64.30;100327.28;4995175;28;20136;-81
2022/04/03 00:29:24;;;;;;;2.03;1.67;;;;;;;18.26;64.08;100329.03;5010725;28;20089;-81
2022/04/03 00:31:50;;;;;;;1.70;1.60;;;;;;;18.26;64.06;100333.44;5004304;28;20030;-81
2022/04/03 00:34:16;;;;;;;2.45;1.38;;;;;;;18.23;64.22;100330.75;5009684;28;20042;-81
2022/04/03 00:36:42;;;;;;;2.85;1.90;;;;;;;18.23;64.29;100341.31;5005965;28;20033;-81
2022/04/03 00:39:07;;;;;;;2.20;1.73;;;;;;;18.25;64.57;100348.41;4996274;28;20041;-81
2022/04/03 00:41:33;;;;;;;3.15;1.60;;;;;;;18.18;64.31;100328.03;5010763;28;20411;-81
2022/04/03 00:43:59;;;;;;;2.47;1.88;;;;;;;18.13;63.90;100328.81;5009920;28;20034;-81
2022/04/03 00:46:26;;;;;;;2.10;1.60;;;;;;;18.23;64.21;100352.78;5010967;28;20034;-81
2022/04/03 00:48:52;;;;;;;2.47;1.70;;;;;;;18.18;64.41;100348.28;5010734;28;20079;-81
2022/04/03 00:51:18;;;;;;;2.33;1.55;;;;;;;18.23;64.36;100349.25;5011798;28;20663;-81
2022/04/03 00:53:44;;;;;;;2.20;1.60;;;;;;;18.23;64.32;100349.25;5015023;28;20095;-81
2022/04/03 00:56:09;;;;;;;2.25;1.63;;;;;;;18.22;64.10;100350.97;5013728;28;20062;-81
2022/04/03 00:58:37;;;;;;;2.13;1.85;;;;;;;18.21;64.35;100341.28;5020021;28;20072;-81
2022/04/03 01:01:04;;;;;;;3.00;1.80;;;;;;;18.17;64.33;100334.19;5033513;28;20032;-81
2022/04/03 01:03:29;;;;;;;;;;;;;;;18.26;64.66;100344.88;5021644;28;20510;-81
2022/04/03 01:05:56;;;;;;;1.60;1.50;;;;;;;18.20;64.11;100338.63;5014547;28;19917;-81
2022/04/03 01:08:24;;;;;;;2.50;1.80;;;;;;;18.18;64.36;100335.06;5017125;28;20187;-81
2022/04/03 01:10:50;;;;;;;1.75;1.35;;;;;;;18.17;64.50;100331.53;5033386;28;20025;-81
2022/04/03 01:13:15;;;;;;;;;;;;;;;18.24;64.73;100328.09;5017156;28;20037;-81
2022/04/03 01:15:41;;;;;;;2.47;1.70;;;;;;;18.15;64.33;100317.41;5014576;28;19917;-81
2022/04/03 01:18:07;;;;;;;2.88;1.70;;;;;;;18.05;64.11;100311.06;5015858;28;20030;-81
2022/04/03 01:20:35;;;;;;;2.75;2.03;;;;;;;18.10;64.31;100319.97;5018449;28;20484;-81
2022/04/03 01:23:01;;;;;;;2.58;1.83;;;;;;;18.10;64.35;100319.97;5013829;28;20022;-81
2022/04/03 01:25:26;;;;;;;3.08;1.83;;;;;;;18.15;64.22;100329.75;5014659;28;20037;-81
2022/04/03 01:27:52;;;;;;;2.45;1.67;;;;;;;18.13;64.36;100329.69;5013024;28;20425;-81
2022/04/03 01:30:18;;;;;;;2.38;1.80;;;;;;;18.09;64.50;100320.81;5014092;28;20488;-81
2022/04/03 01:32:43;;;;;;;1.77;1.40;;;;;;;18.16;64.71;100323.56;5014007;28;20495;-80
2022/04/03 01:35:09;;;;;;;2.33;1.73;;;;;;;18.15;64.75;100321.81;5014111;28;20121;-81
2022/04/03 01:37:35;;;;;;;1.88;1.65;;;;;;;18.12;64.20;100317.38;5014098;28;20034;-81
2022/04/03 01:40:02;;;;;;;3.00;2.00;;;;;;;18.08;64.43;100313.78;5013798;28;20450;-81
2022/04/03 01:42:28;;;;;;;3.15;2.10;;;;;;;18.11;64.01;100318.22;5012530;28;20022;-81
2022/04/03 01:44:54;;;;;;;3.53;2.22;;;;;;;18.09;64.06;100315.53;5013829;28;20032;-81
2022/04/03 01:47:20;;;;;;;4.57;2.65;;;;;;;18.09;64.02;100317.31;5013348;28;20396;-81
2022/04/03 01:49:45;;;;;;;4.07;2.58;;;;;;;18.07;64.35;100308.47;5013699;28;20431;-81
2022/04/03 01:52:11;;;;;;;3.58;2.28;;;;;;;18.04;64.59;100300.50;5019572;28;20037;-81
2022/04/03 01:54:36;;;;;;;5.05;2.20;;;;;;;18.09;64.63;100304.09;5022184;28;20033;-81
2022/04/03 01:57:02;;;;;;;4.63;2.40;;;;;;;18.08;64.36;100304.97;5013228;28;20049;-81
2022/04/03 01:59:28;;;;;;;3.55;1.98;;;;;;;18.06;64.17;100299.66;5013098;28;20038;-81
2022/04/03 02:01:53;;;;;;;3.30;2.15;;;;;;;18.05;64.54;100305.78;5013501;28;20026;-81
2022/04/03 02:04:19;;;;;;;4.43;2.58;;;;;;;17.94;64.61;100288.00;5013315;28;20034;-81
2022/04/03 02:06:45;;;;;;;5.30;3.15;;;;;;;18.03;64.31;100296.97;5012427;28;20041;-81
2022/04/03 02:09:10;;;;;;;5.32;2.90;;;;;;;18.04;64.25;100295.22;5013816;28;20069;-81
2022/04/03 02:11:36;;;;;;;5.38;3.40;;;;;;;18.02;64.15;100300.47;5013138;28;20038;-81
2022/04/03 02:14:02;;;;;;;5.32;3.20;;;;;;;18.01;64.14;100298.72;5032866;28;20033;-81
2022/04/03 02:16:28;;;;;;;6.85;3.88;;;;;;;18.01;64.32;100289.88;5027197;28;20048;-81
2022/04/03 02:18:54;;;;;;;7.35;3.60;;;;;;;17.66;64.21;100243.50;5013460;28;20083;-81
2022/04/03 02:21:19;;;;;;;7.00;3.80;;;;;;;17.99;64.37;100303.06;5013433;28;20029;-81
2022/04/03 02:23:45;;;;;;;7.57;3.30;;;;;;;17.87;64.19;100290.53;5013401;28;20495;-81
2022/04/03 02:26:11;;;;;;;6.60;3.63;;;;;;;17.98;64.24;100309.22;5011867;28;20052;-81
2022/04/03 02:28:39;;;;;;;;;;;;;;;18.04;64.82;100313.72;5013801;28;20030;-82
2022/04/03 02:31:04;;;;;;;;;;;;;;;18.02;65.07;100318.97;5013202;28;20028;-81
2022/04/03 02:33:30;;;;;;;6.70;3.78;;;;;;;17.94;64.63;100322.34;5012966;28;19948;-81
2022/04/03 02:35:56;;;;;;;7.93;3.63;;;;;;;17.90;64.63;100324.91;5011241;28;20038;-81
2022/04/03 02:38:21;;;;;;;5.05;2.92;;;;;;;17.86;64.62;100311.63;5012734;28;20029;-81
2022/04/03 02:40:47;;;;;;;4.35;3.00;;;;;;;17.95;64.66;100335.59;5012707;28;20048;-82
2022/04/03 02:43:13;;;;;;;5.45;2.67;;;;;;;17.92;64.14;100329.34;5011908;28;20030;-82
2022/04/03 02:45:38;;;;;;;4.68;2.40;;;;;;;17.95;64.61;100329.38;5011461;28;20526;-81
2022/04/03 02:48:04;;;;;;;3.85;2.35;;;;;;;17.95;64.34;100316.19;5012925;28;20077;-82
2022/04/03 02:50:30;;;;;;;3.72;2.25;;;;;;;17.93;64.23;100309.97;5010689;28;20123;-81
2022/04/03 02:52:56;;;;;;;3.88;2.40;;;;;;;17.91;64.48;100312.63;5012628;28;20503;-81
2022/04/03 02:55:23;;;;;;;4.88;2.33;;;;;;;17.93;64.30;100315.25;5012083;28;20062;-81
2022/04/03 02:57:48;;;;;;;5.10;2.47;;;;;;;17.90;64.48;100314.34;5011505;28;20392;-81
2022/04/03 03:00:14;;;;;;;3.67;2.30;;;;;;;17.89;64.83;100312.59;5011073;28;20120;-81
2022/04/03 03:02:44;;;;;;;4.28;2.30;;;;;;;17.88;64.32;100318.72;5010893;28;20073;-81
2022/04/03 03:05:14;;;;;;;4.50;2.47;;;;;;;17.88;64.56;100317.84;4995594;28;20411;-81
2022/04/03 03:07:41;;;;;;;3.25;2.20;;;;;;;17.83;64.86;100309.84;5012662;28;20479;-81
2022/04/03 03:10:09;;;;;;;2.72;2.20;;;;;;;17.85;64.99;100323.09;5012336;28;20029;-81
2022/04/03 03:12:35;;;;;;;2.75;2.08;;;;;;;17.80;64.67;100325.63;5012434;28;20530;-82
2022/04/03 03:15:02;;;;;;;4.63;2.00;;;;;;;17.85;64.79;100329.25;5010975;28;20790;-81
2022/04/03 03:17:28;;;;;;;4.03;2.15;;;;;;;17.84;64.85;100334.50;5020432;28;20022;-81
2022/04/03 03:19:53;;;;;;;3.90;2.20;;;;;;;17.83;65.01;100346.81;5013367;28;20030;-82
2022/04/03 03:22:19;;;;;;;3.20;2.00;;;;;;;17.83;64.78;100367.94;5012170;28;20057;-81
2022/04/03 03:24:45;;;;;;;2.75;2.00;;;;;;;17.85;65.10;100366.22;5011968;28;20112;-81
2022/04/03 03:27:11;;;;;;;3.20;2.00;;;;;;;17.84;64.51;100359.19;5011814;28;20396;-81
2022/04/03 03:29:37;;;;;;;3.47;2.10;;;;;;;17.79;64.25;100342.31;5011688;28;20032;-81
2022/04/03 03:32:02;;;;;;;2.83;1.90;;;;;;;17.83;64.61;100359.16;5011927;28;20499;-81
2022/04/03 03:34:28;;;;;;;3.30;2.10;;;;;;;17.81;64.92;100358.19;5012074;28;20061;-82
2022/04/03 03:36:53;;;;;;;3.08;1.90;;;;;;;17.82;64.75;100367.88;5011728;28;20033;-82
2022/04/03 03:39:19;;;;;;;2.05;1.77;;;;;;;17.75;65.01;100374.81;5012127;28;20473;-81
2022/04/03 03:41:45;;;;;;;3.72;2.20;;;;;;;17.81;65.11;100366.13;5011892;28;20042;-81
2022/04/03 03:44:11;;;;;;;2.85;2.00;;;;;;;17.77;64.36;100348.44;5012075;28;20068;-81
2022/04/03 03:46:40;;;;;;;2.42;1.95;;;;;;;17.76;64.45;100352.81;5011395;28;20466;-82
2022/04/03 03:49:06;;;;;;;3.15;2.00;;;;;;;17.76;64.34;100336.06;5011923;28;20033;-81
2022/04/03 03:51:36;;;;;;;3.63;2.08;;;;;;;17.74;64.97;100322.88;5011458;28;20403;-82
2022/04/03 03:54:02;;;;;;;3.42;1.90;;;;;;;17.75;64.51;100332.53;5011637;28;20105;-82
2022/04/03 03:56:28;;;;;;;2.92;2.05;;;;;;;17.74;64.99;100332.50;5010946;28;20511;-81
2022/04/03 03:58:54;;;;;;;2.63;2.20;;;;;;;17.69;64.74;100321.88;5011368;28;20029;-82
2022/04/03 04:01:20;;;;;;;2.90;2.03;;;;;;;17.72;64.70;100308.75;5011392;28;20041;-82
2022/04/03 04:03:46;;;;;;;3.60;2.22;;;;;;;17.67;64.32;100294.53;5010573;28;20088;-82
2022/04/03 04:06:11;;;;;;;4.13;2.70;;;;;;;17.69;64.53;100293.75;5011606;28;20026;-81
2022/04/03 04:08:38;;;;;;;3.85;2.58;;;;;;;17.68;64.29;100288.41;5011467;28;20025;-82
2022/04/03 04:11:03;;;;;;;4.00;2.95;;;;;;;17.65;64.37;100283.06;5011424;28;20600;-82
2022/04/03 04:13:29;;;;;;;5.65;3.10;;;;;;;17.62;64.58;100286.56;5016622;28;20030;-81
2022/04/03 04:15:55;;;;;;;4.85;2.85;;;;;;;17.67;64.99;100295.47;5018658;28;20124;-82
2022/04/03 04:18:21;;;;;;;3.58;2.75;;;;;;;17.65;64.64;100285.72;5011658;28;20044;-81
2022/04/03 04:20:46;;;;;;;3.58;2.17;;;;;;;17.57;64.78;100280.31;5011273;28;20088;-81
2022/04/03 04:23:13;;;;;;;2.67;2.10;;;;;;;17.64;64.84;100303.31;5025224;28;20037;-81
2022/04/03 04:25:38;;;;;;;3.65;2.17;;;;;;;17.61;64.97;100305.00;5020717;28;20084;-81
2022/04/03 04:28:05;;;;;;;3.85;2.03;;;;;;;17.63;64.88;100325.31;5015005;28;20037;-81
2022/04/03 04:30:31;;;;;;;2.75;2.10;;;;;;;17.63;65.33;100325.31;5014759;28;20069;-81
2022/04/03 04:32:57;;;;;;;2.85;2.10;;;;;;;17.58;64.91;100328.72;5015258;28;20473;-81
2022/04/03 04:35:22;;;;;;;3.00;2.00;;;;;;;17.62;65.04;100341.13;5015040;28;20037;-81
2022/04/03 04:37:48;;;;;;;2.45;2.00;;;;;;;17.59;65.20;100344.59;5015220;28;20032;-81
2022/04/03 04:40:15;;;;;;;2.20;1.80;;;;;;;17.51;64.90;100338.28;5013457;28;20108;-81
2022/04/03 04:42:41;;;;;;;2.05;1.70;;;;;;;17.58;64.91;100355.13;5015102;28;20100;-81
2022/04/03 04:45:07;;;;;;;2.42;1.83;;;;;;;17.53;65.04;100354.16;5014543;28;20491;-81
2022/04/03 04:47:39;;;;;;;2.85;2.10;;;;;;;17.57;64.27;100359.53;5015230;28;20038;-81
2022/04/03 04:50:10;;;;;;;3.88;1.98;;;;;;;17.57;64.72;100366.53;5014686;28;20498;-81
2022/04/03 04:52:36;;;;;;;3.30;2.10;;;;;;;17.56;64.59;100370.03;5014754;28;20034;-81
2022/04/03 04:55:05;;;;;;;2.58;1.80;;;;;;;17.56;64.81;100376.22;5014493;28;20026;-81
2022/04/03 04:57:32;;;;;;;2.40;1.80;;;;;;;17.53;64.19;100372.63;5010411;28;20054;-84
2022/04/03 04:59:59;;;;;;;2.13;1.70;;;;;;;17.47;65.07;100374.28;4999994;28;20019;-81
2022/04/03 05:02:25;;;;;;;3.15;2.10;;;;;;;17.52;64.50;100373.47;5004191;28;20487;-80
2022/04/03 05:04:51;;;;;;;3.13;2.00;;;;;;;17.53;64.41;100372.63;5009381;28;20109;-81
2022/04/03 05:07:17;;;;;;;2.83;2.13;;;;;;;17.51;64.08;100372.59;5014626;28;20034;-79
2022/04/03 05:09:43;;;;;;;4.15;2.60;;;;;;;17.50;64.34;100379.63;5014722;28;20036;-80
2022/04/03 05:12:10;;;;;;;7.00;4.38;;;;;;;17.49;64.65;100375.19;5008971;28;20037;-80
2022/04/03 05:14:37;;;;;;;6.32;4.00;;;;;;;17.49;64.27;100372.56;4998203;28;20050;-80
2022/04/03 05:17:04;;;;;;;5.88;2.78;;;;;;;17.43;63.93;100366.28;4997696;28;20034;-81
2022/04/03 05:19:30;;;;;;;2.58;2.17;;;;;;;17.47;63.92;100371.63;5006231;28;20025;-80
2022/04/03 05:21:55;;;;;;;4.68;2.05;;;;;;;17.40;63.57;100371.47;5007720;28;20025;-80
2022/04/03 05:24:21;;;;;;;3.53;2.63;;;;;;;17.41;64.32;100371.53;5006539;28;20495;-81
2022/04/03 05:26:47;;;;;;;4.07;2.50;;;;;;;17.45;63.85;100378.63;5006887;28;20025;-80
2022/04/03 05:29:12;;;;;;;3.97;2.80;;;;;;;17.44;64.43;100370.69;4997686;28;20038;-81
2022/04/03 05:31:39;;;;;;;4.07;2.58;;;;;;;17.42;64.03;100383.88;5006945;28;20113;-81
2022/04/03 05:34:04;;;;;;;;;;;;;;;17.47;64.42;100384.84;4998971;28;20030;-81
2022/04/03 05:36:30;;;;;;;4.03;2.05;;;;;;;17.37;64.43;100384.63;4996044;28;19976;-80
2022/04/03 05:38:55;;;;;;;2.85;2.25;;;;;;;17.27;64.10;100372.97;4996853;28;20029;-80
2022/04/03 05:41:21;;;;;;;3.03;2.10;;;;;;;17.39;64.03;100389.06;5014487;28;20037;-81
2022/04/03 05:43:47;;;;;;;2.28;1.92;;;;;;;17.38;63.31;100391.69;5013727;28;20022;-81
2022/04/03 05:46:12;;;;;;;3.33;2.25;;;;;;;17.38;64.03;100405.78;5013532;28;20037;-80
2022/04/03 05:48:38;;;;;;;3.67;2.20;;;;;;;17.34;63.29;100396.03;5014006;28;20037;-81
2022/04/03 05:51:03;;;;;;;4.57;2.42;;;;;;;17.38;63.94;100402.25;5013567;28;20054;-81
2022/04/03 05:53:30;;;;;;;3.13;2.25;;;;;;;17.33;64.34;100388.94;5014009;28;20029;-80
2022/04/03 05:55:55;;;;;;;3.28;2.28;;;;;;;17.32;63.70;100391.56;5013251;28;20065;-80
2022/04/03 05:58:21;;;;;;;2.92;2.08;;;;;;;17.37;64.40;100388.16;5013554;28;20112;-81
2022/04/03 06:00:47;;;;;;;2.80;1.83;;;;;;;17.35;63.42;100386.34;5011843;28;20061;-81
2022/04/03 06:03:13;;;;;;;4.72;2.10;;;;;;;17.29;63.41;100381.81;5013613;28;20036;-81
2022/04/03 06:05:39;;;;;;;2.85;2.10;;;;;;;17.30;63.02;100392.41;5012643;28;20030;-81
2022/04/03 06:08:05;;;;;;;2.42;1.70;;;;;;;17.34;63.22;100400.41;5012635;28;20033;-81
2022/04/03 06:10:34;;;;;;;2.70;1.90;;;;;;;17.32;63.49;100400.38;5012507;28;20235;-80
2022/04/03 06:13:04;;;;;;;3.00;2.00;;;;;;;17.31;63.75;100406.50;4991571;28;20026;-80
2022/04/03 06:15:38;;;;;;;2.63;1.70;;;;;;;17.29;63.39;100395.94;4993849;28;20318;-80
2022/04/03 06:18:06;;;;;;;3.35;2.08;;;;;;;17.32;63.55;100395.09;5001964;28;20053;-81
2022/04/03 06:20:32;;;;;;;3.40;2.47;;;;;;;17.24;63.28;100383.50;5013314;28;20061;-81
2022/04/03 06:22:59;;;;;;;3.40;2.35;;;;;;;17.27;63.79;100387.09;5013394;28;20519;-81
2022/04/03 06:25:24;;;;;;;2.47;2.00;;;;;;;17.29;63.15;100395.94;5013467;28;20044;-80
2022/04/03 06:27:54;;;;;;;2.78;2.17;;;;;;;17.28;63.31;100388.84;5013464;28;20100;-80
2022/04/03 06:30:20;;;;;;;3.85;2.47;;;;;;;17.30;63.70;100402.09;5013382;28;20022;-81
2022/04/03 06:32:45;;;;;;;3.13;2.10;;;;;;;17.26;63.65;100387.94;5013310;28;20029;-81
2022/04/03 06:35:11;;;;;;;3.47;2.38;;;;;;;17.24;63.62;100384.38;5013288;28;20087;-81
2022/04/03 06:37:37;;;;;;;3.00;2.08;;;;;;;17.26;64.33;100387.06;5013369;28;20057;-81
2022/04/03 06:40:04;;;;;;;3.40;2.70;;;;;;;17.31;63.77;100393.31;5012025;28;20034;-81
2022/04/03 06:42:31;;;;;;;2.30;1.83;;;;;;;17.29;64.32;100395.03;5013167;28;20026;-81
2022/04/03 06:44:58;;;;;;;5.15;2.35;;;;;;;17.28;64.17;100396.78;4996618;28;20079;-81
2022/04/03 06:47:23;;;;;;;3.47;2.17;;;;;;;17.24;63.95;100392.28;5003434;28;20040;-81
2022/04/03 06:49:49;;;;;;;2.83;2.20;;;;;;;17.23;64.55;100390.53;5011769;28;20030;-80
2022/04/03 06:52:15;;;;;;;3.95;2.22;;;;;;;17.23;63.96;100387.88;5012962;28;20045;-81
2022/04/03 06:54:42;;;;;;;3.00;2.33;;;;;;;17.24;64.01;100396.69;5001212;28;20050;-80
2022/04/03 06:57:08;;;;;;;;;;;;;;;17.29;64.43;100397.66;5014233;28;20041;-81
2022/04/03 06:59:34;;;;;;;2.65;1.90;;;;;;;17.25;64.01;100402.00;4994962;28;19917;-81
2022/04/03 07:02:00;;;;;;;3.00;2.08;;;;;;;17.26;64.44;100397.59;5003021;28;20096;-81
2022/04/03 07:04:26;;;;;;;;;;;;;;;17.29;64.07;100406.50;5013736;28;20503;-83
2022/04/03 07:06:51;;;;;;;2.63;2.08;;;;;;;17.18;63.13;100393.91;5011820;28;19917;-81
2022/04/03 07:09:17;;;;;;;2.17;1.77;;;;;;;17.11;63.16;100390.25;5010860;28;20513;-82
2022/04/03 07:11:42;;;;;;;2.40;1.92;;;;;;;17.19;63.41;100409.78;5003596;28;20029;-81
2022/04/03 07:14:08;;;;;;;2.20;1.73;;;;;;;17.19;63.24;100403.63;5015259;28;20483;-82
2022/04/03 07:16:34;;;;;;;3.05;1.77;;;;;;;17.24;63.46;100420.44;5031986;28;20492;-82
2022/04/03 07:18:59;;;;;;;2.38;1.77;;;;;;;17.19;63.31;100419.47;5020634;28;20033;-81
2022/04/03 07:21:25;;;;;;;2.33;1.67;;;;;;;17.14;63.26;100399.97;5010696;28;20033;-82
2022/04/03 07:23:51;;;;;;;2.33;1.58;;;;;;;17.20;63.39;100418.59;5012267;28;20041;-82
2022/04/03 07:26:17;;;;;;;2.03;1.83;;;;;;;17.16;63.50;100411.47;5015598;28;20033;-80
2022/04/03 07:28:42;;;;;;;3.05;2.10;;;;;;;17.17;63.33;100415.91;5031865;28;20029;-82
2022/04/03 07:31:08;;;;;;;1.60;1.48;;;;;;;17.16;63.71;100408.81;5031639;28;20402;-82
2022/04/03 07:33:34;;;;;;;2.00;1.80;;;;;;;17.20;63.58;100410.66;5010584;28;20049;-82
2022/04/03 07:36:00;;;;;;;2.45;1.63;;;;;;;17.20;63.32;100413.31;5015091;28;20030;-82
2022/04/03 07:38:26;;;;;;;;;;;;;;;17.30;63.37;100426.72;5010874;28;20029;-82
2022/04/03 07:40:52;;;;;;;1.67;1.55;;;;;;;17.22;63.21;100419.50;5011760;28;20071;-81
2022/04/03 07:43:18;;;;;;;1.70;1.45;;;;;;;17.23;63.19;100416.91;5011581;28;20109;-81
2022/04/03 07:45:44;;;;;;;2.72;1.85;;;;;;;17.27;62.87;100417.84;5012122;28;20033;-82
2022/04/03 07:48:10;;;;;;;1.90;1.60;;;;;;;17.26;62.30;100416.09;5004980;28;20026;-83
2022/04/03 07:50:36;;;;;;;2.13;1.58;;;;;;;17.28;62.52;100415.25;4992215;28;20113;-82
2022/04/03 07:53:03;;;;;;;1.50;1.40;;;;;;;17.30;63.44;100417.94;5002655;28;20081;-82
2022/04/03 07:55:28;;;;;;;2.15;1.88;;;;;;;17.24;63.10;100409.88;5011067;28;20030;-82
2022/04/03 07:57:54;;;;;;;1.83;1.60;;;;;;;17.25;62.33;100424.84;5017156;28;20025;-81
2022/04/03 08:00:20;;;;;;;1.67;1.48;;;;;;;17.25;62.50;100419.56;5031392;28;20030;-81
2022/04/03 08:02:45;;;;;;;2.20;1.67;;;;;;;17.22;62.00;100430.06;5019069;28;20522;-81
2022/04/03 08:05:11;;;;;;;2.10;1.52;;;;;;;17.20;62.28;100422.09;5011467;28;20125;-81
2022/04/03 08:07:45;;;;;;;2.33;1.42;;;;;;;17.24;63.22;100429.22;5010343;28;20039;-81
2022/04/03 08:10:12;;;;;;;1.67;1.33;;;;;;;17.18;63.55;100420.31;5023579;28;20021;-81
2022/04/03 08:12:39;;;;;;;2.45;1.70;;;;;;;17.20;63.47;100429.13;5031588;28;20525;-81
2022/04/03 08:15:07;;;;;;;1.67;1.45;;;;;;;17.21;64.28;100429.19;5011675;28;20026;-81
2022/04/03 08:17:33;;;;;;;2.00;1.48;;;;;;;17.27;64.02;100436.31;4998665;28;20033;-80
2022/04/03 08:19:58;;;;;;;1.55;1.40;;;;;;;17.28;63.34;100435.47;5005157;28;20019;-82
2022/04/03 08:22:24;;;;;;;2.00;1.80;;;;;;;17.31;63.99;100438.16;5018354;28;20032;-83
2022/04/03 08:24:50;;;;;;;2.05;1.55;;;;;;;17.32;63.92;100437.31;4995509;28;20411;-83
2022/04/03 08:27:17;;;;;;;1.92;1.50;;;;;;;17.31;64.70;100440.81;5011144;28;20403;-83
2022/04/03 08:29:42;;;;;;;2.25;1.67;;;;;;;17.34;64.01;100448.81;5011560;28;20421;-82
2022/04/03 08:32:08;;;;;;;1.92;1.60;;;;;;;17.33;64.27;100454.03;4998193;28;20114;-80
2022/04/03 08:34:34;;;;;;;1.92;1.67;;;;;;;17.34;63.93;100461.13;4992123;28;20066;-80
2022/04/03 08:37:00;;;;;;;1.77;1.58;;;;;;;17.34;64.04;100469.03;4993131;28;20077;-81
2022/04/03 08:39:25;;;;;;;1.70;1.60;;;;;;;17.30;63.14;100470.72;5023657;28;20451;-80
2022/04/03 08:41:52;;;;;;;1.58;1.35;;;;;;;17.15;63.37;100444.00;4991225;28;20080;-80
2022/04/03 08:44:18;;;;;;;;;;;;;;;17.35;63.55;100466.41;4991913;28;20041;-80
2022/04/03 08:46:47;;;;;;;1.70;1.30;;;;;;;17.31;63.86;100464.56;4994061;28;19999;-79
2022/04/03 08:49:13;;;;;;;2.33;1.60;;;;;;;17.31;64.25;100456.63;5022005;28;20060;-80
2022/04/03 08:51:39;;;;;;;1.95;1.55;;;;;;;17.32;63.63;100450.53;5009948;28;20030;-80
2022/04/03 08:54:05;;;;;;;;;;;;;;;17.36;63.76;100449.72;5010486;28;20026;-80
2022/04/03 08:56:31;;;;;;;1.80;1.60;;;;;;;17.33;63.69;100447.00;5011129;28;19924;-80
2022/04/03 08:58:57;;;;;;;1.38;1.25;;;;;;;17.28;63.51;100448.66;5011353;28;20105;-80
2022/04/03 09:01:24;;;;;;;1.77;1.30;;;;;;;17.24;61.90;100463.53;5010530;28;20030;-82
2022/04/03 09:03:50;;;;;;;4.70;1.65;;;;;;;17.24;62.19;100454.75;5010702;28;20037;-83
2022/04/03 09:06:19;;;;;;;2.13;1.45;;;;;;;17.24;62.01;100460.91;5015536;28;20037;-81
2022/04/03 09:08:46;;;;;;;2.67;1.40;;;;;;;17.20;62.11;100468.72;5030460;28;20109;-81
2022/04/03 09:11:12;;;;;;;2.13;1.20;;;;;;;17.18;61.72;100458.13;5015819;28;20609;-86
2022/04/03 09:13:38;;;;;;;1.83;1.20;;;;;;;17.19;61.93;100464.31;5013331;28;20510;-81
2022/04/03 09:16:05;;;;;;;1.80;1.30;;;;;;;17.22;62.52;100465.25;5013893;28;20056;-81
2022/04/03 09:18:49;;;;;;;1.67;1.13;;;;;;;17.22;61.09;100449.41;5017306;28;20479;-81
2022/04/03 09:21:16;;;;;;;1.38;1.17;;;;;;;17.22;61.81;100452.06;5015420;28;20551;-81
2022/04/03 09:24:04;;;;;;;1.50;1.20;;;;;;;17.27;61.19;100442.50;5015571;28;20056;-81
2022/04/03 09:26:30;;;;;;;1.73;1.10;;;;;;;17.05;61.60;100441.13;5011710;28;20018;-81
2022/04/03 09:29:22;;;;;;;1.45;1.20;;;;;;;17.24;61.38;100460.03;5015416;28;20109;-81
2022/04/03 09:31:48;;;;;;;1.10;1.00;;;;;;;17.10;61.97;100435.94;5012826;28;20053;-81
2022/04/03 09:34:18;;;;;;;1.23;1.05;;;;;;;17.07;62.17;100449.97;5018314;28;20026;-81
2022/04/03 09:36:55;;;;;;;1.20;1.10;;;;;;;17.17;61.78;100460.75;5013523;28;20495;-81
2022/04/03 09:39:24;;;;;;;1.23;1.10;;;;;;;17.18;61.95;100473.94;5013886;28;20037;-81
2022/04/03 09:42:06;;;;;;;1.10;1.00;;;;;;;17.21;61.30;100470.53;5029549;28;20468;-81
2022/04/03 09:44:38;;;;;;;1.45;1.20;;;;;;;17.20;61.49;100479.28;5034015;28;20040;-81
2022/04/03 09:47:20;;;;;;;0.80;0.80;;;;;;;17.26;61.79;100487.34;5032822;28;20403;-80
2022/04/03 09:49:56;;;;;;;1.30;1.10;;;;;;;17.18;61.46;100465.16;5033927;28;20033;-80
2022/04/03 09:52:37;;;;;;;1.20;1.10;;;;;;;17.24;61.49;100483.75;5032705;28;20509;-81
2022/04/03 09:55:13;;;;;;;1.60;1.20;;;;;;;17.17;61.65;100469.56;5033041;28;20480;-80
2022/04/03 09:57:39;;;;;;;2.13;1.17;;;;;;;17.21;61.84;100481.97;5016089;28;20100;-81
2022/04/03 10:00:05;;;;;;;3.20;1.10;;;;;;;17.20;61.53;100479.28;5009534;28;20041;-81
2022/04/03 10:02:32;;;;;;;2.40;1.20;;;;;;;17.20;61.35;100488.06;5012647;28;20041;-81
2022/04/03 10:04:58;;;;;;;1.27;1.17;;;;;;;17.16;62.56;100473.03;5010727;28;20045;-80
2022/04/03 10:07:24;;;;;;;2.35;0.98;;;;;;;17.26;63.08;100488.22;5002333;28;20026;-81
2022/04/03 10:09:51;;;;;;;1.67;1.20;;;;;;;17.17;63.82;100493.28;4993219;28;20030;-81
2022/04/03 10:12:19;;;;;;;1.35;1.05;;;;;;;17.25;63.47;100512.84;4994280;28;20026;-81
2022/04/03 10:14:47;;;;;;;1.75;1.17;;;;;;;17.21;63.70;100534.72;5005586;28;20479;-81
2022/04/03 10:17:13;;;;;;;1.25;1.15;;;;;;;17.22;63.80;100564.66;5029508;28;20025;-80
2022/04/03 10:19:39;;;;;;;2.67;1.25;;;;;;;17.20;61.86;100574.28;5029523;28;20022;-81
2022/04/03 10:22:31;;;;;;;1.23;1.10;;;;;;;17.23;62.22;100566.41;5013573;28;20419;-81
2022/04/03 10:25:05;;;;;;;1.52;1.10;;;;;;;17.26;63.37;100583.22;5015729;28;20026;-81
2022/04/03 10:27:34;;;;;;;1.45;1.10;;;;;;;17.24;63.38;100597.25;5011655;28;20036;-80
2022/04/03 10:30:00;;;;;;;1.63;1.08;;;;;;;17.23;63.33;100600.72;4997533;28;20469;-81
2022/04/03 10:32:30;;;;;;;1.67;1.13;;;;;;;17.21;63.52;100605.97;5008916;28;20045;-81
2022/04/03 10:34:58;;;;;;;1.98;1.20;;;;;;;17.09;63.47;100581.94;5011621;28;20026;-81
2022/04/03 10:37:30;;;;;;;2.80;1.20;;;;;;;17.13;61.84;100604.00;5011989;28;20022;-81
2022/04/03 10:40:08;;;;;;;3.20;1.10;;;;;;;17.17;62.08;100595.31;5013028;28;20017;-81
2022/04/03 10:42:48;;;;;;;1.95;1.10;;;;;;;17.18;62.45;100602.38;5012024;28;20088;-81
2022/04/03 10:45:14;;;;;;;2.72;1.27;;;;;;;17.20;62.62;100592.75;5014897;28;20030;-82
2022/04/03 10:47:40;;;;;;;2.05;0.90;;;;;;;17.20;62.10;100598.91;5006420;28;20164;-82
2022/04/03 10:50:06;;;;;;;1.60;1.10;;;;;;;17.20;63.24;100598.03;5011129;28;20100;-81
2022/04/03 10:52:38;;;;;;;3.75;1.23;;;;;;;17.21;62.59;100600.72;5012960;28;20033;-82
2022/04/03 10:55:27;;;;;;;1.73;1.25;;;;;;;17.21;62.87;100597.19;5011587;28;20178;-82
2022/04/03 10:58:06;;;;;;;1.67;1.00;;;;;;;17.20;63.07;100603.28;5012433;28;20037;-82
2022/04/03 11:00:38;;;;;;;1.52;1.30;;;;;;;17.21;62.84;100599.81;5012270;28;20034;-82
2022/04/03 11:03:13;;;;;;;1.70;1.02;;;;;;;17.21;62.50;100602.47;5016841;28;20458;-81
2022/04/03 11:05:39;;;;;;;1.20;1.10;;;;;;;17.21;62.51;100603.34;5012603;28;20041;-82
2022/04/03 11:08:04;;;;;;;2.38;1.30;;;;;;;17.21;62.99;100605.97;5015746;28;20021;-81
2022/04/03 11:10:49;;;;;;;2.08;1.05;;;;;;;17.19;62.68;100614.72;5011915;28;20526;-81
2022/04/03 11:13:44;;;;;;;2.63;1.45;;;;;;;17.19;63.14;100620.88;5010356;28;20076;-81
2022/04/03 11:16:12;;;;;;;2.58;1.40;;;;;;;17.18;63.42;100605.88;5004233;28;20045;-81
2022/04/03 11:18:52;;;;;;;1.30;1.20;;;;;;;17.20;63.35;100609.47;5008615;28;20419;-81
2022/04/03 11:21:22;;;;;;;1.52;1.20;;;;;;;17.20;63.60;100605.94;5010210;28;20029;-81
2022/04/03 11:23:51;;;;;;;2.42;1.30;;;;;;;17.19;63.38;100606.81;5012345;28;20026;-81
2022/04/03 11:26:17;;;;;;;2.35;1.20;;;;;;;17.19;63.26;100610.31;5010785;28;20030;-81
2022/04/03 11:28:43;;;;;;;1.40;1.20;;;;;;;17.20;63.09;100617.38;4999008;28;20057;-81